MZBZ/BZE METAR and TAF weather

Enter ICAO airport designator
Station Type Date Time Source
MZBZ METAR 2020/01/19 20:00 UTC NOAA

MZBZ 192000Z 05007KT 9999 SCT025 SCT045 28/25 A2999 Q1015 NOSIG


Station Type Date Time Source
MZBZ Decoded METAR 2020/01/19 20:00 UTC NOAA

Belize / Phillip Goldston Intl. Airport, Belize (MZBZ) 17-32N 088-18W 5M
Jan 19, 2020 - 03:00 PM EST / 2020.01.19 2000 UTC
Wind: from the NE (050 degrees) at 8 MPH (7 KT):0
Visibility: greater than 7 mile(s):0
Sky conditions: partly cloudy
Temperature: 82 F (28 C)
Dew Point: 77 F (25 C)
Relative Humidity: 83%
Pressure (altimeter): 29.99 in. Hg (1015 hPa)
ob: MZBZ 192000Z 05007KT 9999 SCT025 SCT045 28/25 A2999 Q1015 NOSIG
cycle: 20

Station Type Date Time Source
MZBZ TAF 2020/01/19 18:06 UTC NOAA

TAF TAF MZBZ 191500Z 1918/2018 05006KT 9999 SCT023 SCT045 PROB30
TEMPO 2006/2009 5000 SHRA BKN015 BKN040
BECMG 2006/2008 VRB03KT

Example: see airport list